Flight Track Log - Related Links

Times and Time Zones

All times are in EDT time to prevent confusion due to time zone crossing. See the ASQ5685 flight status page for this flight to view local times or setup timezone preferences in your user account.

Time Position Orientation Groundspeed Altitude Reporting Facility
EDT Latitude Longitude Course Direction KTS MPH feet Rate Location/Type
Wed 10:05:43 AM 33.6333 -84.3667 69° East 184 212 2,500  Level Atlanta TRACON
Wed 10:06:37 AM 33.6333 -84.2833 90° East 271 312 4,000 2,105 Climbing Atlanta TRACON
Wed 10:07:37 AM 33.6333 -84.2000 90° East 286 329 6,500 2,190 Climbing Atlanta TRACON
Wed 10:08:00 AM 33.9552 -84.0488 53° Northeast  Level Estimated
Wed 10:08:43 AM 33.6397 -84.0936 86° East 297 342 8,600  Level Atlanta Center
Wed 10:09:00 AM 33.9960 -83.9230 69° East  Level FlightAware Approximate
Wed 10:09:43 AM 33.6983 -84.0164 48° Northeast 297 342 10,600  Level Atlanta Center
Wed 10:10:00 AM 34.0367 -83.7971 69° East  Level FlightAware Approximate
Wed 10:10:43 AM 33.7608 -83.9389 46° Northeast 311 358 12,500  Level Atlanta Center
Wed 10:11:43 AM 33.8211 -83.8614 47° Northeast 317 365 14,300 1,300 Climbing Atlanta Center
Wed 10:12:43 AM 33.8858 -83.7761 48° Northeast 327 376 15,100 650 Climbing Atlanta Center
Wed 10:13:43 AM 33.9544 -83.6756 51° Northeast 365 420 15,600 450 Climbing Atlanta Center
Wed 10:14:43 AM 34.0167 -83.5803 52° Northeast 385 443 16,000 550 Climbing Atlanta Center
Wed 10:15:43 AM 34.0872 -83.4669 53° Northeast 414 476 16,700 750 Climbing Atlanta Center
Wed 10:16:43 AM 34.1597 -83.3508 53° Northeast 428 493 17,500 800 Climbing Atlanta Center
Wed 10:17:43 AM 34.2342 -83.2347 52° Northeast 433 498 18,300 800 Climbing Atlanta Center
Wed 10:18:43 AM 34.3042 -83.1208 53° Northeast 433 498 19,100 800 Climbing Atlanta Center
Wed 10:19:43 AM 34.3742 -83.0044 54° Northeast 433 498 19,900 800 Climbing Atlanta Center
Wed 10:20:43 AM 34.4442 -82.8853 55° Northeast 433 498 20,700 800 Climbing Atlanta Center
Wed 10:21:43 AM 34.5242 -82.7581 53° Northeast 433 498 21,500 750 Climbing Atlanta Center
Wed 10:22:43 AM 34.5939 -82.6358 55° Northeast 433 498 22,200 600 Climbing Atlanta Center
Wed 10:23:43 AM 34.6636 -82.5386 49° Northeast 427 491 22,700 500 Climbing Atlanta Center
Wed 10:24:43 AM 34.7353 -82.4186 54° Northeast 427 491 23,200 500 Climbing Atlanta Center
Wed 10:25:43 AM 34.8086 -82.2983 53° Northeast 438 504 23,700 500 Climbing Atlanta Center
Wed 10:26:43 AM 34.8842 -82.1700 54° Northeast 444 511 24,200 533 Climbing Atlanta Center
Wed 10:28:00 AM 34.9681 -82.0277 54° Northeast  Level FlightAware Approximate
Wed 10:28:43 AM 35.0428 -81.9206 54° Northeast 442 509 25,300  Level Atlanta Center
Wed 10:29:43 AM 35.1072 -81.7894 59° Northeast 442 509 25,800 450 Climbing Atlanta Center
Wed 10:30:43 AM 35.1697 -81.6733 57° Northeast 448 516 26,200 450 Climbing Atlanta Center
Wed 10:31:43 AM 35.2381 -81.5417 58° Northeast 448 516 26,700 500 Climbing Atlanta Center
Wed 10:32:43 AM 35.3083 -81.4097 57° Northeast 458 527 27,200 550 Climbing Atlanta Center
Wed 10:33:43 AM 35.3764 -81.2750 58° Northeast 458 527 27,800 500 Climbing Atlanta Center
Wed 10:34:43 AM 35.4442 -81.1428 58° Northeast 463 533 28,200 450 Climbing Atlanta Center
Wed 10:35:43 AM 35.5161 -81.0075 57° Northeast 463 533 28,700 400 Climbing Atlanta Center
Wed 10:36:43 AM 35.5856 -80.8747 57° Northeast 463 533 29,000 150 Climbing Atlanta Center
Wed 10:37:43 AM 35.6550 -80.7367 58° Northeast 470 541 29,000  Level Atlanta Center
Wed 10:39:39 AM 35.7983 -80.4553 58° Northeast 485 558 29,000  Level Washington Center
Wed 10:40:40 AM 35.8731 -80.3136 57° Northeast 485 558 29,000  Level Washington Center
Wed 10:41:39 AM 35.9431 -80.1717 59° Northeast 485 558 29,000  Level Washington Center
Wed 10:42:39 AM 36.0103 -80.0497 56° Northeast 476 548 29,000  Level Washington Center
Wed 10:43:39 AM 36.0864 -79.9100 56° Northeast 476 548 29,000  Level Washington Center
Wed 10:44:37 AM 36.1733 -79.7553 55° Northeast 499 574 29,000  Level Washington Center
Wed 10:45:38 AM 36.2444 -79.6278 55° Northeast 511 588 29,000  Level Washington Center
Wed 10:46:38 AM 36.3289 -79.4747 56° Northeast 497 572 29,000 -298 Level Washington Center
Wed 10:47:39 AM 36.4064 -79.3342 56° Northeast 497 572 28,400 -694 Descending Washington Center
Wed 10:48:39 AM 36.4881 -79.1908 55° Northeast 497 572 27,600 -793 Descending Washington Center
Wed 10:49:40 AM 36.5628 -79.0622 54° Northeast 502 578 26,800 -843 Descending Washington Center
Wed 10:50:40 AM 36.6439 -78.9183 55° Northeast 502 578 25,900 -915 Descending Washington Center
Wed 10:51:38 AM 36.7231 -78.7689 57° Northeast 502 578 25,000 -458 Descending Washington Center
Wed 10:52:38 AM 36.8064 -78.6142 56° Northeast 502 578 25,000  Level Washington Center
Wed 10:53:39 AM 36.8850 -78.4742 55° Northeast 497 572 25,000  Level Washington Center
Wed 10:54:40 AM 36.9592 -78.3367 56° Northeast 487 560 25,000  Level Washington Center
Wed 10:55:38 AM 37.0350 -78.2144 52° Northeast 487 560 25,000  Level Washington Center
Wed 10:56:39 AM 37.1433 -78.1244 34° Northeast 472 543 25,000  Level Washington Center
Wed 10:57:40 AM 37.2600 -78.0344 32° Northeast 471 542 25,000  Level Washington Center
Wed 10:58:40 AM 37.3742 -77.9492 31° Northeast 476 548 25,000  Level Washington Center
Wed 10:59:38 AM 37.4886 -77.8583 32° Northeast 476 548 25,000 -1,300 Level Washington Center
Wed 11:00:40 AM 37.6089 -77.7808 27° Northeast 481 554 22,400 -2,607 Descending Washington Center
Wed 11:01:40 AM 37.7250 -77.7106 26° Northeast 475 547 19,700 -2,746 Descending Washington Center
Wed 11:02:38 AM 37.8367 -77.6481 24° Northeast 455 524 17,000 -2,571 Descending Washington Center
Wed 11:03:39 AM 37.9439 -77.5850 25° Northeast 434 499 14,600 -2,361 Descending Washington Center
Wed 11:04:40 AM 38.0556 -77.5222 24° Northeast 417 480 12,200 -2,231 Descending Washington Center
Wed 11:05:40 AM 38.1544 -77.4639 25° Northeast 389 448 10,100 -1,271 Descending Washington Center
Wed 11:06:38 AM 38.2344 -77.4156 25° Northeast 350 403 9,700 -1,068 Descending Washington Center
Wed 11:07:38 AM 38.3058 -77.3803 21° North 302 348 8,000 -1,636 Descending Washington Center
Wed 11:08:39 AM 38.3761 -77.4297 331° Northwest 253 291 6,400 -1,574 Descending Washington Center
Wed 11:09:40 AM 38.4508 -77.4475 349° North 261 300 4,800 -1,190 Descending Washington Center
Wed 11:10:40 AM 38.5239 -77.4467 North 267 307 4,000 -407 Descending Washington Center
Wed 11:11:38 AM 38.5928 -77.4431 North 253 291 4,000  Level Washington Center
Wed 11:12:24 AM 38.6500 -77.4333 North 221 254 4,000 -113 Level Potomac TRACON
Wed 11:13:24 AM 38.7000 -77.4333 360° North 218 251 3,800 -474 Descending Potomac TRACON
Wed 11:14:18 AM 38.7500 -77.4333 360° North 181 208 3,100 -500 Descending Potomac TRACON
Wed 11:15:24 AM 38.8000 -77.4333 360° North 180 207 2,800 -619 Descending Potomac TRACON
Wed 11:16:24 AM 38.8500 -77.4333 360° North 167 192 1,800 -900 Descending Potomac TRACON
Wed 11:17:24 AM 38.9000 -77.4333 360° North 147 169 1,000 -800 Descending Potomac TRACON

Login

Don't have an account? Register now (free) for customized features, flight alerts, and more!